Time,TemperatureF,DewpointF,PressureIn,WindDirection,WindDirectionDegrees,WindSpeedMPH,WindSpeedGustMPH,Humidity,HourlyPrecipIn,Conditions,Clouds,dailyrainin,SoftwareType,DateUTC
2013-03-29 00:00:00,45.3,31.4,30.17,East,92,2.0,2.0,58,0.00,,,0.00,Wunderground v.1.15,2013-03-29 05:00:00,
2013-03-29 00:10:00,45.4,31.9,30.17,East,98,2.0,18.0,59,0.00,,,0.00,Wunderground v.1.15,2013-03-29 05:10:00,
2013-03-29 00:15:00,46.1,32.1,30.17,ESE,109,5.0,18.0,58,0.00,,,0.00,Wunderground v.1.15,2013-03-29 05:15:00,
2013-03-29 00:20:00,46.7,32.3,30.17,ESE,110,6.0,18.0,57,0.00,,,0.00,Wunderground v.1.15,2013-03-29 05:20:00,
2013-03-29 00:25:00,46.6,32.2,30.17,ESE,110,6.0,18.0,57,0.00,,,0.00,Wunderground v.1.15,2013-03-29 05:25:00,
2013-03-29 00:30:00,46.6,32.2,30.17,ESE,110,5.0,5.0,57,0.00,,,0.00,Wunderground v.1.15,2013-03-29 05:30:00,
2013-03-29 00:35:00,46.5,32.5,30.17,ESE,110,4.0,18.0,58,0.00,,,0.00,Wunderground v.1.15,2013-03-29 05:35:00,
2013-03-29 00:45:00,46.5,32.9,30.17,ESE,110,4.0,18.0,59,0.00,,,0.00,Wunderground v.1.15,2013-03-29 05:45:00,
2013-03-29 00:50:00,46.6,33.0,30.17,ESE,110,3.0,18.0,59,0.00,,,0.00,Wunderground v.1.15,2013-03-29 05:50:00,
2013-03-29 01:00:00,46.9,32.9,30.17,ESE,110,3.0,3.0,58,0.00,,,0.00,Wunderground v.1.15,2013-03-29 06:00:00,
2013-03-29 01:05:00,46.7,33.1,30.17,ESE,110,2.0,4.0,59,0.00,,,0.00,Wunderground v.1.15,2013-03-29 06:05:00,
2013-03-29 01:10:00,46.6,33.0,30.17,ESE,110,4.0,18.0,59,0.00,,,0.00,Wunderground v.1.15,2013-03-29 06:10:00,
2013-03-29 01:20:00,46.0,32.0,30.17,ESE,110,2.0,18.0,58,0.00,,,0.00,Wunderground v.1.15,2013-03-29 06:20:00,
2013-03-29 01:25:00,44.9,31.4,30.17,ESE,110,1.0,18.0,59,0.00,,,0.00,Wunderground v.1.15,2013-03-29 06:25:00,
2013-03-29 01:30:00,44.2,31.6,30.16,ESE,110,1.0,1.0,61,0.00,,,0.00,Wunderground v.1.15,2013-03-29 06:30:00,
2013-03-29 01:35:00,43.8,32.0,30.16,ESE,110,1.0,18.0,63,0.00,,,0.00,Wunderground v.1.15,2013-03-29 06:35:00,
2013-03-29 01:40:00,43.8,32.4,30.16,ESE,110,1.0,1.0,64,0.00,,,0.00,Wunderground v.1.15,2013-03-29 06:40:00,
2013-03-29 01:50:00,43.2,31.4,30.16,ESE,110,0.0,18.0,63,0.00,,,0.00,Wunderground v.1.15,2013-03-29 06:50:00,
2013-03-29 01:55:00,42.9,31.6,30.16,ESE,110,0.0,18.0,64,0.00,,,0.00,Wunderground v.1.15,2013-03-29 06:55:00,
2013-03-29 02:05:00,42.0,31.5,30.16,ESE,110,2.0,18.0,66,0.00,,,0.00,Wunderground v.1.15,2013-03-29 07:05:00,
2013-03-29 02:10:00,41.7,31.5,30.16,ESE,110,2.0,2.0,67,0.00,,,0.00,Wunderground v.1.15,2013-03-29 07:10:00,
2013-03-29 02:15:00,41.6,31.8,30.16,ESE,110,0.0,18.0,68,0.00,,,0.00,Wunderground v.1.15,2013-03-29 07:15:00,
2013-03-29 02:20:00,42.0,32.9,30.16,ESE,110,1.0,18.0,70,0.00,,,0.00,Wunderground v.1.15,2013-03-29 07:20:00,
2013-03-29 02:25:00,42.7,33.2,30.16,ESE,110,3.0,18.0,69,0.00,,,0.00,Wunderground v.1.15,2013-03-29 07:25:00,
2013-03-29 02:30:00,43.1,33.3,30.15,ESE,110,2.0,2.0,68,0.00,,,0.00,Wunderground v.1.15,2013-03-29 07:30:00,
2013-03-29 02:35:00,43.0,32.4,30.15,ESE,110,1.0,18.0,66,0.00,,,0.00,Wunderground v.1.15,2013-03-29 07:35:00,
2013-03-29 02:40:00,42.2,31.6,30.15,ESE,110,2.0,2.0,66,0.00,,,0.00,Wunderground v.1.15,2013-03-29 07:40:00,
2013-03-29 02:45:00,41.3,31.2,30.14,ESE,110,2.0,4.0,67,0.00,,,0.00,Wunderground v.1.15,2013-03-29 07:45:00,
2013-03-29 02:50:00,40.5,30.8,30.15,ESE,109,2.0,2.0,68,0.00,,,0.00,Wunderground v.1.15,2013-03-29 07:50:00,
2013-03-29 03:00:00,39.9,31.6,30.14,ESE,110,2.0,18.0,72,0.00,,,0.00,Wunderground v.1.15,2013-03-29 08:00:00,
2013-03-29 03:10:00,39.9,31.6,30.15,ESE,113,2.0,2.0,72,0.00,,,0.00,Wunderground v.1.15,2013-03-29 08:10:00,
2013-03-29 03:15:00,39.5,30.9,30.14,ESE,113,1.0,18.0,71,0.00,,,0.00,Wunderground v.1.15,2013-03-29 08:15:00,
2013-03-29 03:20:00,39.0,30.7,30.14,ESE,113,0.0,18.0,72,0.00,,,0.00,Wunderground v.1.15,2013-03-29 08:20:00,
2013-03-29 03:25:00,38.8,31.2,30.15,ESE,113,0.0,18.0,74,0.00,,,0.00,Wunderground v.1.15,2013-03-29 08:25:00,
2013-03-29 03:35:00,39.5,32.6,30.15,ESE,113,1.0,18.0,76,0.00,,,0.00,Wunderground v.1.15,2013-03-29 08:35:00,
2013-03-29 03:40:00,39.8,32.5,30.15,ESE,113,0.0,18.0,75,0.00,,,0.00,Wunderground v.1.15,2013-03-29 08:40:00,
2013-03-29 03:45:00,40.3,33.0,30.15,ESE,113,0.0,18.0,75,0.00,,,0.00,Wunderground v.1.15,2013-03-29 08:45:00,
2013-03-29 03:50:00,40.5,32.9,30.15,ESE,113,1.0,18.0,74,0.00,,,0.00,Wunderground v.1.15,2013-03-29 08:50:00,
2013-03-29 03:55:00,40.8,33.2,30.15,ESE,113,2.0,18.0,74,0.00,,,0.00,Wunderground v.1.15,2013-03-29 08:55:00,
2013-03-29 04:05:00,41.0,34.7,30.14,ESE,113,1.0,18.0,78,0.00,,,0.00,Wunderground v.1.15,2013-03-29 09:05:00,
2013-03-29 04:15:00,41.0,33.0,30.14,ESE,113,1.0,18.0,73,0.00,,,0.00,Wunderground v.1.15,2013-03-29 09:15:00,
2013-03-29 04:20:00,41.0,33.3,30.14,ESE,113,1.0,1.0,74,0.00,,,0.00,Wunderground v.1.15,2013-03-29 09:20:00,
2013-03-29 04:25:00,41.0,33.0,30.15,ESE,113,0.0,18.0,73,0.00,,,0.00,Wunderground v.1.15,2013-03-29 09:25:00,
2013-03-29 04:30:00,40.8,32.8,30.15,ESE,113,0.0,18.0,73,0.00,,,0.00,Wunderground v.1.15,2013-03-29 09:30:00,
2013-03-29 04:40:00,40.6,33.3,30.15,ESE,113,1.0,18.0,75,0.00,,,0.00,Wunderground v.1.15,2013-03-29 09:40:00,
2013-03-29 04:45:00,41.1,33.8,30.15,ESE,113,2.0,18.0,75,0.00,,,0.00,Wunderground v.1.15,2013-03-29 09:45:00,
2013-03-29 04:50:00,41.3,33.6,30.15,ESE,113,2.0,2.0,74,0.00,,,0.00,Wunderground v.1.15,2013-03-29 09:50:00,
2013-03-29 04:55:00,41.2,33.5,30.15,ESE,113,1.0,18.0,74,0.00,,,0.00,Wunderground v.1.15,2013-03-29 09:55:00,
2013-03-29 05:00:00,41.2,33.9,30.14,ESE,113,1.0,1.0,75,0.00,,,0.00,Wunderground v.1.15,2013-03-29 10:00:00,
2013-03-29 05:10:00,40.9,33.6,30.14,ESE,113,2.0,2.0,75,0.00,,,0.00,Wunderground v.1.15,2013-03-29 10:10:00,
2013-03-29 05:20:00,40.2,32.6,30.15,ESE,113,0.0,18.0,74,0.00,,,0.00,Wunderground v.1.15,2013-03-29 10:20:00,
2013-03-29 05:25:00,39.8,32.5,30.14,ESE,113,0.0,18.0,75,0.00,,,0.00,Wunderground v.1.15,2013-03-29 10:25:00,
2013-03-29 05:30:00,39.8,33.5,30.14,ESE,113,1.0,18.0,78,0.00,,,0.00,Wunderground v.1.15,2013-03-29 10:30:00,
2013-03-29 05:35:00,39.9,33.3,30.14,ESE,113,1.0,18.0,77,0.00,,,0.00,Wunderground v.1.15,2013-03-29 10:35:00,
2013-03-29 05:40:00,39.8,33.2,30.14,ESE,113,1.0,18.0,77,0.00,,,0.00,Wunderground v.1.15,2013-03-29 10:40:00,
2013-03-29 05:45:00,39.8,33.5,30.15,ESE,113,2.0,18.0,78,0.00,,,0.00,Wunderground v.1.15,2013-03-29 10:45:00,
2013-03-29 05:50:00,39.8,33.2,30.14,ESE,113,2.0,18.0,77,0.00,,,0.00,Wunderground v.1.15,2013-03-29 10:50:00,
2013-03-29 05:55:00,39.6,33.3,30.15,ESE,113,2.0,18.0,78,0.00,,,0.00,Wunderground v.1.15,2013-03-29 10:55:00,
2013-03-29 06:00:00,39.5,32.9,30.15,ESE,113,1.0,1.0,77,0.00,,,0.00,Wunderground v.1.15,2013-03-29 11:00:00,
2013-03-29 06:10:00,38.4,31.5,30.15,ESE,113,0.0,18.0,76,0.00,,,0.00,Wunderground v.1.15,2013-03-29 11:10:00,
2013-03-29 06:15:00,37.8,31.9,30.15,ESE,113,0.0,18.0,79,0.00,,,0.00,Wunderground v.1.15,2013-03-29 11:15:00,
2013-03-29 06:25:00,38.6,33.6,30.15,ESE,113,1.0,18.0,82,0.00,,,0.00,Wunderground v.1.15,2013-03-29 11:25:00,
2013-03-29 06:30:00,38.9,33.6,30.15,ESE,113,1.0,1.0,81,0.00,,,0.00,Wunderground v.1.15,2013-03-29 11:30:00,
2013-03-29 06:35:00,39.1,33.8,30.16,ESE,113,1.0,18.0,81,0.00,,,0.00,Wunderground v.1.15,2013-03-29 11:35:00,
2013-03-29 06:40:00,39.1,33.8,30.16,ESE,113,0.0,18.0,81,0.00,,,0.00,Wunderground v.1.15,2013-03-29 11:40:00,
2013-03-29 06:45:00,39.1,34.1,30.16,ESE,113,0.0,18.0,82,0.00,,,0.00,Wunderground v.1.15,2013-03-29 11:45:00,
2013-03-29 06:55:00,39.1,33.5,30.16,ESE,113,2.0,18.0,80,0.00,,,0.00,Wunderground v.1.15,2013-03-29 11:55:00,
2013-03-29 07:00:00,38.7,33.1,30.16,ESE,113,2.0,18.0,80,0.00,,,0.00,Wunderground v.1.15,2013-03-29 12:00:00,
2013-03-29 07:05:00,38.5,33.2,30.16,ESE,113,3.0,18.0,81,0.00,,,0.00,Wunderground v.1.15,2013-03-29 12:05:00,
2013-03-29 07:15:00,38.2,32.9,30.16,ESE,113,1.0,18.0,81,0.00,,,0.00,Wunderground v.1.15,2013-03-29 12:15:00,
2013-03-29 07:20:00,38.1,33.1,30.16,ESE,113,0.0,18.0,82,0.00,,,0.00,Wunderground v.1.15,2013-03-29 12:20:00,
2013-03-29 07:30:00,37.0,32.0,30.17,ESE,113,3.0,18.0,82,0.00,,,0.00,Wunderground v.1.15,2013-03-29 12:30:00,
2013-03-29 07:35:00,36.8,32.1,30.17,ESE,113,3.0,18.0,83,0.00,,,0.00,Wunderground v.1.15,2013-03-29 12:35:00,
2013-03-29 07:40:00,36.8,32.4,30.17,ESE,113,1.0,1.0,84,0.00,,,0.00,Wunderground v.1.15,2013-03-29 12:40:00,
2013-03-29 07:50:00,37.0,32.6,30.18,ESE,113,0.0,18.0,84,0.00,,,0.00,Wunderground v.1.15,2013-03-29 12:50:00,
2013-03-29 07:55:00,37.0,32.6,30.18,ESE,113,0.0,18.0,84,0.00,,,0.00,Wunderground v.1.15,2013-03-29 12:55:00,
2013-03-29 08:05:00,37.6,33.8,30.18,ESE,113,0.0,18.0,86,0.00,,,0.00,Wunderground v.1.15,2013-03-29 13:05:00,
2013-03-29 08:10:00,38.1,34.3,30.18,ESE,113,0.0,18.0,86,0.00,,,0.00,Wunderground v.1.15,2013-03-29 13:10:00,
2013-03-29 08:15:00,38.6,34.5,30.18,ESE,113,0.0,18.0,85,0.00,,,0.00,Wunderground v.1.15,2013-03-29 13:15:00,
2013-03-29 08:20:00,39.2,35.1,30.18,ESE,113,1.0,18.0,85,0.00,,,0.00,Wunderground v.1.15,2013-03-29 13:20:00,
2013-03-29 08:25:00,39.9,35.5,30.18,ESE,113,1.0,18.0,84,0.00,,,0.00,Wunderground v.1.15,2013-03-29 13:25:00,
2013-03-29 08:30:00,40.5,35.7,30.18,ESE,113,1.0,18.0,83,0.00,,,0.00,Wunderground v.1.15,2013-03-29 13:30:00,
2013-03-29 08:40:00,41.1,35.7,30.18,ESE,113,2.0,2.0,81,0.00,,,0.00,Wunderground v.1.15,2013-03-29 13:40:00,
2013-03-29 08:45:00,41.3,35.9,30.18,ESE,113,3.0,3.0,81,0.00,,,0.00,Wunderground v.1.15,2013-03-29 13:45:00,
2013-03-29 08:55:00,41.7,36.0,30.18,ESE,113,2.0,18.0,80,0.00,,,0.00,Wunderground v.1.15,2013-03-29 13:55:00,
2013-03-29 09:00:00,42.2,36.8,30.18,ESE,113,1.0,18.0,81,0.00,,,0.00,Wunderground v.1.15,2013-03-29 14:00:00,
2013-03-29 09:05:00,42.9,37.2,30.18,ESE,113,1.0,18.0,80,0.00,,,0.00,Wunderground v.1.15,2013-03-29 14:05:00,
2013-03-29 09:15:00,43.6,37.5,30.18,ESE,113,2.0,18.0,79,0.00,,,0.00,Wunderground v.1.15,2013-03-29 14:15:00,
2013-03-29 09:20:00,44.0,37.6,30.18,ESE,113,3.0,18.0,78,0.00,,,0.00,Wunderground v.1.15,2013-03-29 14:20:00,
2013-03-29 09:25:00,44.6,38.2,30.18,ESE,113,3.0,18.0,78,0.00,,,0.00,Wunderground v.1.15,2013-03-29 14:25:00,
2013-03-29 09:30:00,45.1,38.3,30.18,ESE,113,3.0,18.0,77,0.00,,,0.00,Wunderground v.1.15,2013-03-29 14:30:00,
2013-03-29 09:35:00,45.8,38.7,30.18,ESE,113,3.0,18.0,76,0.00,,,0.00,Wunderground v.1.15,2013-03-29 14:35:00,
2013-03-29 09:45:00,46.9,39.4,30.18,ESE,115,4.0,18.0,75,0.00,,,0.00,Wunderground v.1.15,2013-03-29 14:45:00,
2013-03-29 09:50:00,47.6,39.7,30.19,ESE,115,3.0,3.0,74,0.00,,,0.00,Wunderground v.1.15,2013-03-29 14:50:00,
2013-03-29 10:00:00,49.0,40.7,30.19,ESE,115,1.0,18.0,73,0.00,,,0.00,Wunderground v.1.15,2013-03-29 15:00:00,
2013-03-29 10:05:00,49.9,41.2,30.18,ESE,115,1.0,18.0,72,0.00,,,0.00,Wunderground v.1.15,2013-03-29 15:05:00,
2013-03-29 10:10:00,50.8,40.6,30.18,ESE,115,2.0,2.0,68,0.00,,,0.00,Wunderground v.1.15,2013-03-29 15:10:00,
2013-03-29 10:20:00,51.8,41.2,30.18,SSE,162,3.0,18.0,67,0.00,,,0.00,Wunderground v.1.15,2013-03-29 15:20:00,
2013-03-29 10:25:00,52.1,40.7,30.18,SSE,163,5.0,18.0,65,0.00,,,0.00,Wunderground v.1.15,2013-03-29 15:25:00,
2013-03-29 10:30:00,52.2,40.8,30.18,SSE,156,6.0,6.0,65,0.00,,,0.00,Wunderground v.1.15,2013-03-29 15:30:00,
2013-03-29 10:35:00,52.8,41.4,30.18,ESE,123,6.0,11.0,65,0.00,,,0.00,Wunderground v.1.15,2013-03-29 15:35:00,
2013-03-29 10:40:00,53.5,41.2,30.17,SSE,156,7.0,18.0,63,0.00,,,0.00,Wunderground v.1.15,2013-03-29 15:40:00,
2013-03-29 10:45:00,54.0,41.3,30.17,SE,136,8.0,18.0,62,0.00,,,0.00,Wunderground v.1.15,2013-03-29 15:45:00,
2013-03-29 10:55:00,55.0,40.9,30.17,ESE,123,7.0,18.0,59,0.00,,,0.00,Wunderground v.1.15,2013-03-29 15:55:00,
2013-03-29 11:05:00,56.0,41.0,30.17,ESE,113,9.0,18.0,57,0.00,,,0.00,Wunderground v.1.15,2013-03-29 16:05:00,
2013-03-29 11:10:00,56.7,40.2,30.17,SE,136,10.0,18.0,54,0.00,,,0.00,Wunderground v.1.15,2013-03-29 16:10:00,
2013-03-29 11:15:00,57.1,41.1,30.17,SE,126,10.0,18.0,55,0.00,,,0.00,Wunderground v.1.15,2013-03-29 16:15:00,
2013-03-29 11:20:00,57.3,41.3,30.17,ESE,121,9.0,18.0,55,0.00,,,0.00,Wunderground v.1.15,2013-03-29 16:20:00,
2013-03-29 11:30:00,57.8,39.3,30.16,ESE,121,11.0,18.0,50,0.00,,,0.00,Wunderground v.1.15,2013-03-29 16:30:00,
2013-03-29 11:35:00,57.9,39.9,30.16,ESE,119,11.0,18.0,51,0.00,,,0.00,Wunderground v.1.15,2013-03-29 16:35:00,
2013-03-29 11:40:00,58.6,39.5,30.16,ESE,118,11.0,18.0,49,0.00,,,0.00,Wunderground v.1.15,2013-03-29 16:40:00,
2013-03-29 11:45:00,58.7,39.0,30.16,South,178,11.0,18.0,48,0.00,,,0.00,Wunderground v.1.15,2013-03-29 16:45:00,
2013-03-29 11:50:00,59.0,38.8,30.16,SE,144,11.0,11.0,47,0.00,,,0.00,Wunderground v.1.15,2013-03-29 16:50:00,
2013-03-29 12:00:00,59.4,39.1,30.16,ESE,113,10.0,18.0,47,0.00,,,0.00,Wunderground v.1.15,2013-03-29 17:00:00,
2013-03-29 12:10:00,60.1,39.2,30.15,SE,124,10.0,18.0,46,0.00,,,0.00,Wunderground v.1.15,2013-03-29 17:10:00,
2013-03-29 12:15:00,60.3,38.9,30.15,SSE,150,11.0,18.0,45,0.00,,,0.00,Wunderground v.1.15,2013-03-29 17:15:00,
2013-03-29 12:20:00,60.1,38.1,30.15,SE,124,12.0,12.0,44,0.00,,,0.00,Wunderground v.1.15,2013-03-29 17:20:00,
2013-03-29 12:25:00,60.3,38.3,30.15,SSE,149,11.0,18.0,44,0.00,,,0.00,Wunderground v.1.15,2013-03-29 17:25:00,
2013-03-29 12:35:00,61.0,38.9,30.15,SE,143,9.0,14.0,44,0.00,,,0.00,Wunderground v.1.15,2013-03-29 17:35:00,
2013-03-29 12:40:00,60.8,38.7,30.15,SE,132,10.0,18.0,44,0.00,,,0.00,Wunderground v.1.15,2013-03-29 17:40:00,
2013-03-29 12:45:00,61.0,38.3,30.15,SSE,157,11.0,18.0,43,0.00,,,0.00,Wunderground v.1.15,2013-03-29 17:45:00,
2013-03-29 12:50:00,61.5,39.4,30.14,SSE,149,10.0,10.0,44,0.00,,,0.00,Wunderground v.1.15,2013-03-29 17:50:00,
2013-03-29 12:55:00,62.0,39.2,30.14,ESE,122,10.0,18.0,43,0.00,,,0.00,Wunderground v.1.15,2013-03-29 17:55:00,
2013-03-29 13:00:00,62.0,38.0,30.14,SSE,155,10.0,18.0,41,0.00,,,0.00,Wunderground v.1.15,2013-03-29 18:00:00,
2013-03-29 13:10:00,62.6,38.6,30.13,SE,126,11.0,11.0,41,0.00,,,0.00,Wunderground v.1.15,2013-03-29 18:10:00,
2013-03-29 13:15:00,62.4,37.7,30.13,ESE,115,11.0,18.0,40,0.00,,,0.00,Wunderground v.1.15,2013-03-29 18:15:00,
2013-03-29 13:20:00,62.8,36.8,30.12,SSE,161,10.0,18.0,38,0.00,,,0.00,Wunderground v.1.15,2013-03-29 18:20:00,
2013-03-29 13:25:00,63.2,37.8,30.12,SSE,163,9.0,18.0,39,0.00,,,0.00,Wunderground v.1.15,2013-03-29 18:25:00,
2013-03-29 13:30:00,63.7,37.6,30.12,ESE,103,10.0,10.0,38,0.00,,,0.00,Wunderground v.1.15,2013-03-29 18:30:00,
2013-03-29 13:35:00,63.8,37.7,30.12,SSE,149,10.0,18.0,38,0.00,,,0.00,Wunderground v.1.15,2013-03-29 18:35:00,
2013-03-29 13:45:00,64.4,37.5,30.11,SE,134,10.0,18.0,37,0.00,,,0.00,Wunderground v.1.15,2013-03-29 18:45:00,
2013-03-29 13:50:00,64.6,38.4,30.11,SE,138,10.0,18.0,38,0.00,,,0.00,Wunderground v.1.15,2013-03-29 18:50:00,
2013-03-29 13:55:00,64.3,37.5,30.11,SE,140,9.0,18.0,37,0.00,,,0.00,Wunderground v.1.15,2013-03-29 18:55:00,
2013-03-29 14:00:00,64.2,36.7,30.11,ESE,118,10.0,18.0,36,0.00,,,0.00,Wunderground v.1.15,2013-03-29 19:00:00,
2013-03-29 14:10:00,64.9,37.3,30.10,ESE,119,10.0,18.0,36,0.00,,,0.00,Wunderground v.1.15,2013-03-29 19:10:00,
2013-03-29 14:20:00,65.5,37.1,30.10,SSE,153,9.0,18.0,35,0.00,,,0.00,Wunderground v.1.15,2013-03-29 19:20:00,
2013-03-29 14:25:00,65.2,37.6,30.09,SSE,165,8.0,18.0,36,0.00,,,0.00,Wunderground v.1.15,2013-03-29 19:25:00,
2013-03-29 14:30:00,65.6,35.7,30.09,South,173,9.0,9.0,33,0.00,,,0.00,Wunderground v.1.15,2013-03-29 19:30:00,
2013-03-29 14:35:00,65.6,37.2,30.09,ESE,114,10.0,10.0,35,0.00,,,0.00,Wunderground v.1.15,2013-03-29 19:35:00,
2013-03-29 14:40:00,66.0,35.3,30.09,SE,142,9.0,18.0,32,0.00,,,0.00,Wunderground v.1.15,2013-03-29 19:40:00,
2013-03-29 14:50:00,66.2,35.4,30.08,SSE,153,10.0,10.0,32,0.00,,,0.00,Wunderground v.1.15,2013-03-29 19:50:00,
2013-03-29 14:55:00,66.5,35.7,30.08,ESE,119,9.0,18.0,32,0.00,,,0.00,Wunderground v.1.15,2013-03-29 19:55:00,
2013-03-29 15:00:00,66.8,34.3,30.08,SE,145,9.0,18.0,30,0.00,,,0.00,Wunderground v.1.15,2013-03-29 20:00:00,
2013-03-29 15:05:00,66.8,33.5,30.08,SE,144,10.0,18.0,29,0.00,,,0.00,Wunderground v.1.15,2013-03-29 20:05:00,
2013-03-29 15:15:00,67.0,35.3,30.07,ESE,119,10.0,18.0,31,0.00,,,0.00,Wunderground v.1.15,2013-03-29 20:15:00,
2013-03-29 15:25:00,67.4,32.2,30.07,SSW,192,10.0,18.0,27,0.00,,,0.00,Wunderground v.1.15,2013-03-29 20:25:00,
2013-03-29 15:30:00,67.2,33.8,30.06,SSE,157,9.0,18.0,29,0.00,,,0.00,Wunderground v.1.15,2013-03-29 20:30:00,
2013-03-29 15:35:00,67.3,33.9,30.06,South,177,10.0,18.0,29,0.00,,,0.00,Wunderground v.1.15,2013-03-29 20:35:00,
2013-03-29 15:40:00,67.9,34.4,30.06,SE,133,10.0,18.0,29,0.00,,,0.00,Wunderground v.1.15,2013-03-29 20:40:00,
2013-03-29 15:45:00,67.6,33.3,30.05,ESE,120,9.0,18.0,28,0.00,,,0.00,Wunderground v.1.15,2013-03-29 20:45:00,
2013-03-29 15:50:00,67.6,34.2,30.05,SSE,148,11.0,18.0,29,0.00,,,0.00,Wunderground v.1.15,2013-03-29 20:50:00,
2013-03-29 16:00:00,67.8,34.4,30.05,ESE,117,11.0,11.0,29,0.00,,,0.00,Wunderground v.1.15,2013-03-29 21:00:00,
2013-03-29 16:10:00,68.5,35.8,30.05,SSE,149,9.0,18.0,30,0.00,,,0.00,Wunderground v.1.15,2013-03-29 21:10:00,
2013-03-29 16:15:00,68.5,35.0,30.05,SSE,161,9.0,18.0,29,0.00,,,0.00,Wunderground v.1.15,2013-03-29 21:15:00,
2013-03-29 16:20:00,68.3,34.8,30.04,SSE,167,9.0,9.0,29,0.00,,,0.00,Wunderground v.1.15,2013-03-29 21:20:00,
2013-03-29 16:25:00,68.4,34.9,30.04,SE,146,9.0,13.0,29,0.00,,,0.00,Wunderground v.1.15,2013-03-29 21:25:00,
2013-03-29 16:35:00,68.6,35.1,30.04,SSE,168,11.0,11.0,29,0.00,,,0.00,Wunderground v.1.15,2013-03-29 21:35:00,
2013-03-29 16:40:00,68.8,35.2,30.04,South,171,12.0,12.0,29,0.00,,,0.00,Wunderground v.1.15,2013-03-29 21:40:00,
2013-03-29 16:45:00,68.7,35.1,30.03,SE,145,9.0,13.0,29,0.00,,,0.00,Wunderground v.1.15,2013-03-29 21:45:00,
2013-03-29 16:50:00,68.8,34.3,30.03,ESE,118,9.0,18.0,28,0.00,,,0.00,Wunderground v.1.15,2013-03-29 21:50:00,
2013-03-29 16:55:00,69.0,34.5,30.04,SSE,167,11.0,18.0,28,0.00,,,0.00,Wunderground v.1.15,2013-03-29 21:55:00,
2013-03-29 17:05:00,68.9,34.4,30.03,SSE,154,10.0,18.0,28,0.00,,,0.00,Wunderground v.1.15,2013-03-29 22:05:00,
2013-03-29 17:15:00,69.2,34.7,30.03,SSE,156,9.0,14.0,28,0.00,,,0.00,Wunderground v.1.15,2013-03-29 22:15:00,
2013-03-29 17:20:00,69.0,34.5,30.03,SSE,165,9.0,9.0,28,0.00,,,0.00,Wunderground v.1.15,2013-03-29 22:20:00,
2013-03-29 17:25:00,68.9,34.4,30.02,SSE,148,10.0,17.0,28,0.00,,,0.00,Wunderground v.1.15,2013-03-29 22:25:00,
2013-03-29 17:30:00,68.8,34.3,30.02,SSE,148,11.0,11.0,28,0.00,,,0.00,Wunderground v.1.15,2013-03-29 22:30:00,
2013-03-29 17:40:00,68.5,34.1,30.02,SSE,147,11.0,18.0,28,0.00,,,0.00,Wunderground v.1.15,2013-03-29 22:40:00,
2013-03-29 17:45:00,68.5,34.1,30.02,ESE,112,11.0,18.0,28,0.00,,,0.00,Wunderground v.1.15,2013-03-29 22:45:00,
2013-03-29 17:55:00,68.8,33.4,30.02,South,169,8.0,18.0,27,0.00,,,0.00,Wunderground v.1.15,2013-03-29 22:55:00,
2013-03-29 18:00:00,68.8,33.4,30.02,SSE,161,10.0,18.0,27,0.00,,,0.00,Wunderground v.1.15,2013-03-29 23:00:00,
2013-03-29 18:05:00,68.6,33.3,30.02,SE,146,11.0,18.0,27,0.00,,,0.00,Wunderground v.1.15,2013-03-29 23:05:00,
2013-03-29 18:15:00,68.4,34.0,30.02,SE,139,9.0,18.0,28,0.00,,,0.00,Wunderground v.1.15,2013-03-29 23:15:00,
2013-03-29 18:20:00,68.3,33.9,30.02,SSE,156,10.0,10.0,28,0.00,,,0.00,Wunderground v.1.15,2013-03-29 23:20:00,
2013-03-29 18:25:00,68.1,33.7,30.01,SE,146,10.0,18.0,28,0.00,,,0.00,Wunderground v.1.15,2013-03-29 23:25:00,
2013-03-29 18:30:00,68.0,33.7,30.01,SSE,150,8.0,18.0,28,0.00,,,0.00,Wunderground v.1.15,2013-03-29 23:30:00,
2013-03-29 18:35:00,67.9,33.6,30.01,SE,143,8.0,18.0,28,0.00,,,0.00,Wunderground v.1.15,2013-03-29 23:35:00,
2013-03-29 18:45:00,67.7,33.4,30.01,SSE,147,10.0,18.0,28,0.00,,,0.00,Wunderground v.1.15,2013-03-29 23:45:00,
2013-03-29 18:55:00,67.6,34.2,30.01,SSE,153,10.0,18.0,29,0.00,,,0.00,Wunderground v.1.15,2013-03-29 23:55:00,
2013-03-29 19:00:00,67.5,34.1,30.01,SE,128,9.0,9.0,29,0.00,,,0.00,Wunderground v.1.15,2013-03-30 00:00:00,
2013-03-29 19:05:00,67.4,34.0,30.01,SE,141,9.0,18.0,29,0.00,,,0.00,Wunderground v.1.15,2013-03-30 00:05:00,
2013-03-29 19:10:00,67.2,34.7,30.01,SSE,160,9.0,18.0,30,0.00,,,0.00,Wunderground v.1.15,2013-03-30 00:10:00,
2013-03-29 19:15:00,66.8,34.3,30.01,SE,138,9.0,18.0,30,0.00,,,0.00,Wunderground v.1.15,2013-03-30 00:15:00,
2013-03-29 19:25:00,66.5,34.9,30.00,SE,138,10.0,18.0,31,0.00,,,0.00,Wunderground v.1.15,2013-03-30 00:25:00,
2013-03-29 19:30:00,66.3,34.7,30.00,SE,146,10.0,10.0,31,0.00,,,0.00,Wunderground v.1.15,2013-03-30 00:30:00,
2013-03-29 19:40:00,65.9,35.2,30.00,SSE,148,8.0,18.0,32,0.00,,,0.00,Wunderground v.1.15,2013-03-30 00:40:00,
2013-03-29 19:45:00,65.7,35.0,30.00,ESE,122,8.0,18.0,32,0.00,,,0.00,Wunderground v.1.15,2013-03-30 00:45:00,
2013-03-29 19:50:00,65.5,34.8,30.00,SSE,153,7.0,7.0,32,0.00,,,0.00,Wunderground v.1.15,2013-03-30 00:50:00,
2013-03-29 20:00:00,65.2,35.4,30.00,SSE,161,6.0,18.0,33,0.00,,,0.00,Wunderground v.1.15,2013-03-30 01:00:00,
2013-03-29 20:05:00,65.1,35.3,29.99,SE,143,7.0,18.0,33,0.00,,,0.00,Wunderground v.1.15,2013-03-30 01:05:00,
2013-03-29 20:10:00,65.0,35.2,29.99,SE,140,8.0,8.0,33,0.00,,,0.00,Wunderground v.1.15,2013-03-30 01:10:00,
2013-03-29 20:15:00,64.9,35.1,29.99,SE,144,9.0,9.0,33,0.00,,,0.00,Wunderground v.1.15,2013-03-30 01:15:00,
2013-03-29 20:25:00,64.5,35.5,29.99,SSE,148,8.0,10.0,34,0.00,,,0.00,Wunderground v.1.15,2013-03-30 01:25:00,
2013-03-29 20:30:00,64.4,35.4,29.99,SE,132,8.0,18.0,34,0.00,,,0.00,Wunderground v.1.15,2013-03-30 01:30:00,
2013-03-29 20:35:00,64.3,35.3,29.99,SSE,148,9.0,18.0,34,0.00,,,0.00,Wunderground v.1.15,2013-03-30 01:35:00,
2013-03-29 20:40:00,64.2,35.2,29.99,SE,135,9.0,18.0,34,0.00,,,0.00,Wunderground v.1.15,2013-03-30 01:40:00,
2013-03-29 20:45:00,64.0,35.8,29.99,SE,130,9.0,18.0,35,0.00,,,0.00,Wunderground v.1.15,2013-03-30 01:45:00,
2013-03-29 20:50:00,63.8,35.6,29.99,ESE,121,8.0,18.0,35,0.00,,,0.00,Wunderground v.1.15,2013-03-30 01:50:00,
2013-03-29 20:55:00,63.6,35.4,29.99,SE,140,9.0,18.0,35,0.00,,,0.00,Wunderground v.1.15,2013-03-30 01:55:00,
2013-03-29 21:05:00,63.2,35.8,29.99,SSE,155,9.0,14.0,36,0.00,,,0.00,Wunderground v.1.15,2013-03-30 02:05:00,
2013-03-29 21:10:00,63.1,35.7,29.99,SE,138,9.0,18.0,36,0.00,,,0.00,Wunderground v.1.15,2013-03-30 02:10:00,
2013-03-29 21:20:00,62.8,35.4,29.98,SE,140,11.0,11.0,36,0.00,,,0.00,Wunderground v.1.15,2013-03-30 02:20:00,
2013-03-29 21:25:00,62.6,35.9,29.98,SE,132,12.0,12.0,37,0.00,,,0.00,Wunderground v.1.15,2013-03-30 02:25:00,
2013-03-29 21:30:00,62.3,35.7,29.98,SE,133,10.0,10.0,37,0.00,,,0.00,Wunderground v.1.15,2013-03-30 02:30:00,
2013-03-29 21:35:00,62.1,35.5,29.98,SE,135,9.0,18.0,37,0.00,,,0.00,Wunderground v.1.15,2013-03-30 02:35:00,
2013-03-29 21:40:00,62.1,36.2,29.98,SSE,150,10.0,10.0,38,0.00,,,0.00,Wunderground v.1.15,2013-03-30 02:40:00,
2013-03-29 21:45:00,62.1,36.2,29.98,SSE,156,11.0,11.0,38,0.00,,,0.00,Wunderground v.1.15,2013-03-30 02:45:00,
2013-03-29 21:50:00,62.1,36.2,29.98,SSE,161,12.0,12.0,38,0.00,,,0.00,Wunderground v.1.15,2013-03-30 02:50:00,
2013-03-29 21:55:00,62.1,36.2,29.98,SSE,148,12.0,17.0,38,0.00,,,0.00,Wunderground v.1.15,2013-03-30 02:55:00,
2013-03-29 22:00:00,62.2,36.3,29.98,SSE,152,13.0,13.0,38,0.00,,,0.00,Wunderground v.1.15,2013-03-30 03:00:00,
2013-03-29 22:10:00,61.7,35.8,29.98,ESE,109,11.0,18.0,38,0.00,,,0.00,Wunderground v.1.15,2013-03-30 03:10:00,
2013-03-29 22:20:00,61.5,36.3,29.99,SSE,157,12.0,12.0,39,0.00,,,0.00,Wunderground v.1.15,2013-03-30 03:20:00,
2013-03-29 22:25:00,61.4,36.2,29.99,SSE,164,12.0,18.0,39,0.00,,,0.00,Wunderground v.1.15,2013-03-30 03:25:00,
2013-03-29 22:30:00,61.4,36.2,30.00,SSE,165,12.0,18.0,39,0.00,,,0.00,Wunderground v.1.15,2013-03-30 03:30:00,
2013-03-29 22:35:00,61.2,36.0,30.00,SSE,162,12.0,18.0,39,0.00,,,0.00,Wunderground v.1.15,2013-03-30 03:35:00,
2013-03-29 22:40:00,61.1,36.6,30.00,South,174,11.0,11.0,40,0.00,,,0.00,Wunderground v.1.15,2013-03-30 03:40:00,
2013-03-29 22:50:00,60.6,36.8,29.99,SSE,158,11.0,11.0,41,0.00,,,0.00,Wunderground v.1.15,2013-03-30 03:50:00,
2013-03-29 22:55:00,60.4,36.6,29.99,SSE,161,11.0,18.0,41,0.00,,,0.00,Wunderground v.1.15,2013-03-30 03:55:00,
2013-03-29 23:00:00,60.2,36.4,29.99,SE,143,11.0,11.0,41,0.00,,,0.00,Wunderground v.1.15,2013-03-30 04:00:00,
2013-03-29 23:05:00,60.1,36.9,29.99,SSE,167,11.0,18.0,42,0.00,,,0.00,Wunderground v.1.15,2013-03-30 04:05:00,
2013-03-29 23:10:00,60.0,37.4,29.99,SSE,168,10.0,18.0,43,0.00,,,0.00,Wunderground v.1.15,2013-03-30 04:10:00,
2013-03-29 23:15:00,59.9,37.3,29.99,SE,142,11.0,18.0,43,0.00,,,0.00,Wunderground v.1.15,2013-03-30 04:15:00,
2013-03-29 23:20:00,60.0,38.0,29.98,South,175,11.0,18.0,44,0.00,,,0.00,Wunderground v.1.15,2013-03-30 04:20:00,
2013-03-29 23:25:00,59.9,37.9,29.99,SSE,150,12.0,18.0,44,0.00,,,0.00,Wunderground v.1.15,2013-03-30 04:25:00,
2013-03-29 23:30:00,59.8,37.8,29.99,South,181,11.0,11.0,44,0.00,,,0.00,Wunderground v.1.15,2013-03-30 04:30:00,
2013-03-29 23:35:00,59.7,38.3,29.99,SSE,153,10.0,18.0,45,0.00,,,0.00,Wunderground v.1.15,2013-03-30 04:35:00,
2013-03-29 23:40:00,59.6,38.2,29.98,SSE,154,12.0,18.0,45,0.00,,,0.00,Wunderground v.1.15,2013-03-30 04:40:00,
2013-03-29 23:45:00,59.5,38.7,29.99,SSE,157,13.0,18.0,46,0.00,,,0.00,Wunderground v.1.15,2013-03-30 04:45:00,
2013-03-29 23:50:00,59.3,38.5,29.99,SSE,158,12.0,18.0,46,0.00,,,0.00,Wunderground v.1.15,2013-03-30 04:50:00,
2013-03-29 23:55:00,59.1,38.3,29.99,SSE,150,12.0,18.0,46,0.00,,,0.00,Wunderground v.1.15,2013-03-30 04:55:00,